Terminal Aerodrome Forecast
Issued by NWS

Home | Current Version | Previous Version | Text Only | Print | Product List | Glossary On
Versions: 1 2 3 4 5 6 7 8 9 10 11 12 13 14 15 16 17 18 19 20 21 22 23 24 25 26 27 28 29 30 31 32 33 34 35 36
000
FTAK31 PANC 191134
TAFATK
TAF
PATK 191134Z 1912/2012 VRB04KT P6SM VCSH SCT040 OVC070
     FM191500 VRB06KT P6SM -SHRA BKN035 OVC050
     FM192000 16010G20KT P6SM VCSH SCT070
     FM200500 VRB05KT P6SM BKN080=

USA.gov is the U.S. government's official web portal to all federal, state and local government web resources and services.